This is the latest recevied weather packets stored in our database for station/object VA7NEZ. If no packets are shown the sender has not sent any weather packets the latest 10 day(s).
| Time | Temp. | Humidity | Pressure | Rain* | Wind** | Luminosity | Snow |
|---|---|---|---|---|---|---|---|
| 1777710596 | 11.67° C | 62% | 1017.5 hPa | 0 mm | - | - | - |
| 1777710061 | 12.22° C | 63% | 1017.5 hPa | 0 mm | - | - | - |
| 1777709542 | 12.22° C | 61% | 1017.3 hPa | 0 mm | - | - | - |
| 1777708956 | 12.78° C | 59% | 1017.2 hPa | 0 mm | - | - | - |
| 1777707231 | 13.89° C | 55% | 1016.9 hPa | 0 mm | - | - | - |
| 1777706643 | 13.89° C | 53% | 1016.8 hPa | 0 mm | - | - | - |
| 1777706056 | 14.44° C | 53% | 1016.8 hPa | 0 mm | - | - | - |
| 1777705561 | 0° C | 100% | 1016.8 hPa | 0 mm | - | - | - |
| 1777704971 | 15° C | 53% | 1016.7 hPa | 0 mm | - | - | - |
| 1777703841 | 15° C | 56% | 1016.6 hPa | 0 mm | - | - | - |
| 1777703361 | 15° C | 57% | 1016.4 hPa | 0 mm | - | - | - |
| 1777702807 | 0° C | 100% | 1016.5 hPa | 0 mm | - | - | - |
| 1777702311 | 15° C | 59% | 1016.6 hPa | 0 mm | - | - | - |
| 1777701791 | 15.56° C | 57% | 1016.7 hPa | 0 mm | - | - | - |
| 1777701301 | 15.56° C | 53% | 1016.8 hPa | 0 mm | - | - | - |
| 1777700741 | 0° C | 100% | 1016.5 hPa | 0 mm | - | - | - |
| 1777700206 | 15.56° C | 53% | 1016.4 hPa | 0 mm | - | - | - |
| 1777699716 | 15.56° C | 53% | 1016.4 hPa | 0 mm | - | - | - |
| 1777699197 | 15.56° C | 53% | 1016.3 hPa | 0 mm | - | - | - |
| 1777698701 | 16.11° C | 55% | 1016.1 hPa | 0 mm | - | - | - |
| 1777698136 | 16.11° C | 53% | 1016.1 hPa | 0 mm | - | - | - |
| 1777696996 | 16.67° C | 53% | 1016 hPa | 0 mm | - | - | - |
| 1777696468 | 16.67° C | 54% | 1015.8 hPa | 0 mm | - | - | - |
| 1777695926 | 17.22° C | 52% | 1015.9 hPa | 0 mm | - | - | - |
| 1777695444 | 17.78° C | 50% | 1015.8 hPa | 0 mm | - | - | - |
* Rain latest hour (hover to see other rain measurements)
** Current wind speed in m/s (hover to see current wind gust speed)